Aeroporto :







RITROVATECI SU...

 
LOGIN :

Iscrizione | Disclaimer

   EN    FR    IT 

 









Sommario :    VFR   VFR Marginale   IFR   IFR Intensivo   IFR Molto Intensivo
Visibilità : 
Base nubi : 
>= 8 km
>= 3000ft
5 / 8 km
1000 / 3000 ft
1500m / 5 km
500 / 1000 ft
800 / 1500m
200 / 500 ft
< 800m
< 200 ft
Simboli :   Temporali  Nebbia  Neve Forte  Precipitazioni Forti  Vento > 20 kt






- Altitudine del aeroporto : 20 ft
- Codice IATA : BON


TNCB - Flamingo

ULTIMO METAR :
  • 021155Z AUTO 10015KT 070V140 9999 BKN017/// BKN025/// 28/23 Q1014

METARs OBSOLETI :
  • 021055Z AUTO 09012KT 9999 SCT016/// BKN021/// BKN025/// 27/23 Q1013
  • 020955Z AUTO 09012KT 9999 FEW014/// 27/23 Q1013

TAF TAF TNCB
Valido dal 02 a 12 ore il 03 a 18 ore UTC


021010Z 0212/0318 09015KT 9999 FEW018
FIR TNCF / America del Nord



MetMap, La meteo Aeronautica in un colpo d'occhio ! - Copyright ORBIFLY Dicembre 2007 - Disclaimer

ORBIFLY MET'MAP TEAM :

Programmazione e sviluppo : Alexandra Zaïnal
Concezione : Baudouin d'Aumeries
Aiuto per la programmazione : Marc-Olivier Méhu
Supporto tecnico e logistico : Manuel Goepfert
Aiuto per la traduzione : Arnaldo La Scala

Contatto : metmap@orbifly.com




FONTI E CREDITI :

   NOAA